21-й км

Карта отелей и гостиниц, располагающихся рядом с аэропортом 21-й км :

21-й км Чукотский автономный округ 69° 36' 7.9704" N, 170° 44' 1.9392" E
21-й км Чукотский автономный округ 69° 36' 7.9704" N, 170° 44' 1.9392" E
Код аэродрома ИКАО
HE75
Код аэродрома RU
ХЕ75
Координаты
N69.60221° E170.73387°
Превышение над уровнем моря
172
Основная полоса
02/20
Курс магнитный
023,9/203,9
Длина основной ВПП
51
Ширина основной ВПП
40
Покрытие основной ВПП
Твёрдое
Освещение ВПП
Нет
Тип: 
Вертодром
Класс аэродрома: 
Принадлежность: 
АОН
Статус: 
Действующий
Сайт: 
E-mail аэродрома: 
Страна: 
Россия
Регион: 
Чукотский автономный округ
Город: 
Дополнительная информация: 
Владелец ПП: «Чукотская Горно-Геологическая компания», структурное подразделение компании «Кинросс Дальний Восток».

Найти трансфер

С помощью этой формы Вы можете найти трансфер из аэропорта 21-й км в город, аэропорт или вокзал:

Карта места

Javascript is required to view this map.

Погода в аэропортах:

Авиационная погода в Ровно

Регион: 
Погода METAR: 
UKLR 251230Z 11004MPS 070V140 2000 -DZ BR OVC003 02/02 Q0992 NOSIG
Время наблюдения
2021-01-25T12:30:00Z
Температура C
2.0
Точка росы
2.0
Направление ветра
110
Скорость ветра (узлы)
8
Метео видимость
1.24
Явления погоды
-DZ BR
Условия полета
LIFR
Аэропорт подробнее: 

Авиационная погода в Игнатьево

Регион: 
Погода METAR: 
UHBB 251830Z 01002MPS 1100 R36/1600U SN BKN020 M21/M24 Q1015 R36/810260 NOSIG RMK QFE743/0991
Время наблюдения
2021-01-25T18:30:00Z
Температура C
-21.0
Точка росы
-24.0
Направление ветра
10
Скорость ветра (узлы)
4
Метео видимость
0.68
Явления погоды
SN
Условия полета
LIFR
Аэропорт подробнее: 

Авиационная погода в Киркенесе

Регион: 
Погода METAR: 
ENKR 251850Z 00000KT 4000 -SN FEW006 SCT014 BKN019 M09/M10 Q1006 RMK WIND 731FT 12003KT
Время наблюдения
2021-01-25T18:50:00Z
Температура C
-9.0
Точка росы
-10.0
Направление ветра
0
Скорость ветра (узлы)
0
Метео видимость
2.49
Явления погоды
-SN
Условия полета
IFR

Авиационная погода в Вардё

Регион: 
Погода METAR: 
ENSS 251850Z 11022KT 6000 -SN DRSN BKN009 M01/M02 Q1007 RMK WIND 500FT 09032KT
Время наблюдения
2021-01-25T18:50:00Z
Температура C
-1.0
Точка росы
-2.0
Направление ветра
110
Скорость ветра (узлы)
22
Метео видимость
3.73
Явления погоды
-SN DRSN
Условия полета
IFR